Crawford, Oklahoma
Current Conditions -  °F | °C
As of 11:53 PM on Friday 19 Dec 2014 (Local Time) from KGAG Reporting Station
Overcast Overcast  
Wind Chill: 35°   Ceiling: 1800
Heat Index: 40°   Visibility: 9mi
Dew Point: 38°   Wind: 7mph
Humidity: 93%   Direction: 210°SSW
Pressure: 30.15"   Gusts: NA
Location:  35.83°N, 99.8°W
Report Text: KGAG 200553Z AUTO 21006KT 9SM OVC018 04/03 A3015 RMK AO2 SLP217 T00440033 10050 20039 400560017 50001
Loading
Personal Weather Stations






























Interactive Weather Map New forecast layout! Learn more

10-Day Weather Forecast

Advertisements
Track Severe Weather on mobile